Time;durP1;ratioP1;P1;durP2;ratioP2;P2;SDS_P1;SDS_P2;PMS_P1;PMS_P2;Temp;Humidity;BMP_temperature;BMP_pressure;BME280_temperature;BME280_humidity;BME280_pressure;Samples;Min_cycle;Max_cycle;Signal;HPM_P1;HPM_P2
2021/10/08 00:02:26;;;;;;;20.53;7.77;;;;;;;6.14;41.48;102085.17;126308;1099;104457;-79
2021/10/08 00:04:56;;;;;;;22.30;7.67;;;;;;;6.14;41.74;102087.78;126295;1099;104229;-79
2021/10/08 00:07:28;;;;;;;22.07;7.50;;;;;;;6.12;41.40;102092.88;126279;1099;105714;-78
2021/10/08 00:09:59;;;;;;;25.60;7.83;;;;;;;6.08;41.65;102093.44;126285;1099;104133;-78
2021/10/08 00:12:32;;;;;;;23.67;8.50;;;;;;;6.07;41.56;102086.39;126312;1099;104152;-79
2021/10/08 00:15:03;;;;;;;21.23;7.47;;;;;;;6.06;41.55;102084.56;126289;1099;104242;-78
2021/10/08 00:17:33;;;;;;;29.00;8.20;;;;;;;6.03;42.06;102082.64;126290;1097;104178;-78
2021/10/08 00:20:06;;;;;;;25.40;7.10;;;;;;;6.01;41.86;102086.80;126287;1099;104209;-78
2021/10/08 00:22:36;;;;;;;26.80;7.20;;;;;;;5.92;41.63;102086.97;126241;1099;104287;-79
2021/10/08 00:25:09;;;;;;;19.10;6.67;;;;;;;5.85;41.64;102081.14;126304;1099;104155;-78
2021/10/08 00:27:40;;;;;;;23.93;6.77;;;;;;;5.78;41.96;102084.03;126255;1098;105560;-78
2021/10/08 00:30:12;;;;;;;26.13;7.30;;;;;;;5.68;41.51;102088.50;126292;1099;104156;-78
2021/10/08 00:32:44;;;;;;;25.52;7.05;;;;;;;5.66;41.99;102090.08;126376;1099;104140;-78
2021/10/08 00:35:16;;;;;;;22.70;7.40;;;;;;;5.60;42.02;102084.37;126251;1099;104201;-78
2021/10/08 00:37:51;;;;;;;22.10;6.97;;;;;;;5.59;41.80;102085.14;126241;1099;104670;-78
2021/10/08 00:40:23;;;;;;;25.07;7.40;;;;;;;5.57;41.98;102089.33;126325;1098;104302;-79
2021/10/08 00:42:54;;;;;;;22.20;7.93;;;;;;;5.56;42.01;102090.11;126338;1099;104175;-79
2021/10/08 00:45:25;;;;;;;21.97;6.97;;;;;;;5.50;42.38;102089.61;126314;1099;104190;-78
2021/10/08 00:48:01;;;;;;;22.63;7.53;;;;;;;5.46;41.75;102083.25;126225;1098;104258;-78
2021/10/08 00:50:32;;;;;;;22.03;7.97;;;;;;;5.47;42.59;102097.16;126263;1099;104252;-78
2021/10/08 00:53:05;;;;;;;23.87;7.60;;;;;;;5.47;42.58;102092.89;126300;1099;104155;-79
2021/10/08 00:55:43;;;;;;;23.60;7.83;;;;;;;5.50;42.03;102100.02;126287;1099;104316;-78
2021/10/08 00:58:18;;;;;;;26.07;8.03;;;;;;;5.50;42.33;102100.02;126219;1099;104226;-78
2021/10/08 01:00:51;;;;;;;28.03;8.47;;;;;;;5.49;42.47;102098.22;126274;1099;104204;-78
2021/10/08 01:03:23;;;;;;;24.10;8.77;;;;;;;5.48;43.09;102098.99;126246;1099;104377;-78
2021/10/08 01:05:54;;;;;;;25.87;8.20;;;;;;;5.49;42.82;102101.72;126327;1099;104243;-78
2021/10/08 01:08:25;;;;;;;29.73;8.43;;;;;;;5.48;42.86;102098.99;126223;1099;104153;-78
2021/10/08 01:10:57;;;;;;;23.40;8.60;;;;;;;5.44;42.98;102104.72;126248;1099;104631;-78
2021/10/08 01:13:29;;;;;;;24.10;8.27;;;;;;;5.42;43.03;102099.39;126285;1099;104162;-79
2021/10/08 01:16:04;;;;;;;26.20;8.57;;;;;;;5.43;42.64;102100.33;126246;1099;104160;-79
2021/10/08 01:18:48;;;;;;;31.83;8.70;;;;;;;5.37;43.10;102100.72;126291;1099;104214;-79
2021/10/08 01:21:27;;;;;;;22.43;7.97;;;;;;;5.35;42.95;102102.30;126312;1098;104156;-78
2021/10/08 01:23:59;;;;;;;22.33;7.67;;;;;;;5.36;42.95;102110.23;126268;1099;104640;-78
2021/10/08 01:26:30;;;;;;;24.50;8.43;;;;;;;5.34;43.41;102101.36;126341;1099;104162;-79
2021/10/08 01:29:15;;;;;;;25.10;8.37;;;;;;;5.28;43.18;102095.65;126247;1099;104153;-78
2021/10/08 01:31:48;;;;;;;26.80;7.93;;;;;;;5.26;43.31;102096.33;126326;1099;104201;-79
2021/10/08 01:34:20;;;;;;;24.00;8.10;;;;;;;5.23;43.85;102102.18;126279;1098;104156;-79
2021/10/08 01:36:55;;;;;;;27.00;8.07;;;;;;;5.19;43.58;102105.33;126307;1099;104174;-78
2021/10/08 01:39:27;;;;;;;24.13;8.33;;;;;;;5.10;44.22;102113.27;126231;1099;104255;-79
2021/10/08 01:41:59;;;;;;;29.73;8.90;;;;;;;4.98;43.68;102101.83;126271;1099;104146;-79
2021/10/08 01:44:31;;;;;;;25.93;8.10;;;;;;;4.88;44.38;102107.97;126269;1099;104185;-78
2021/10/08 01:47:02;;;;;;;30.03;9.20;;;;;;;4.81;44.25;102108.22;126307;1099;104341;-78
2021/10/08 01:49:35;;;;;;;25.17;9.17;;;;;;;4.73;44.42;102107.56;126266;1099;104290;-78
2021/10/08 01:52:07;;;;;;;23.30;8.53;;;;;;;4.62;44.70;102110.95;126310;1099;104153;-78
2021/10/08 01:54:42;;;;;;;26.13;9.13;;;;;;;4.54;44.95;102112.89;126276;1099;104287;-78
2021/10/08 01:57:14;;;;;;;31.93;9.43;;;;;;;4.57;44.34;102115.75;126340;1099;104149;-79
2021/10/08 01:59:48;;;;;;;31.10;9.20;;;;;;;4.63;45.11;102115.38;126236;1099;104188;-78
2021/10/08 02:02:20;;;;;;;24.70;9.37;;;;;;;4.62;45.10;102109.25;126305;1099;104187;-79
2021/10/08 02:04:52;;;;;;;25.93;9.20;;;;;;;4.66;45.50;102113.94;126345;1099;104678;-79
2021/10/08 02:07:23;;;;;;;27.80;9.37;;;;;;;4.70;44.92;102119.41;126192;1099;104253;-79
2021/10/08 02:09:54;;;;;;;26.60;8.93;;;;;;;4.64;45.29;102118.11;126260;1099;104258;-78
2021/10/08 02:12:25;;;;;;;23.70;8.50;;;;;;;4.56;45.87;102113.92;126267;1099;104252;-78
2021/10/08 02:14:58;;;;;;;24.33;8.80;;;;;;;4.54;45.42;102118.09;126260;1099;104149;-78
2021/10/08 02:17:30;;;;;;;27.10;10.27;;;;;;;4.47;45.95;102123.53;126300;1099;104248;-78
2021/10/08 02:20:00;;;;;;;25.97;9.87;;;;;;;4.46;46.11;102116.53;126243;1099;104261;-78
2021/10/08 02:22:31;;;;;;;24.85;9.10;;;;;;;4.48;45.93;102122.77;126323;1099;104143;-78
2021/10/08 02:25:02;;;;;;;25.60;8.70;;;;;;;4.44;45.79;102124.20;126268;1099;104146;-77
2021/10/08 02:27:34;;;;;;;25.63;9.60;;;;;;;4.37;46.36;102116.64;126355;1099;104219;-78
2021/10/08 02:30:09;;;;;;;27.37;8.67;;;;;;;4.28;46.07;102115.84;126189;1099;104277;-78
2021/10/08 02:32:41;;;;;;;24.17;9.17;;;;;;;4.18;46.72;102115.83;126249;1099;104227;-78
2021/10/08 02:35:15;;;;;;;24.40;9.18;;;;;;;4.08;46.24;102120.22;126262;1099;104146;-78
2021/10/08 02:37:46;;;;;;;25.83;9.43;;;;;;;4.00;46.36;102120.31;126320;1099;104147;-78
2021/10/08 02:40:18;;;;;;;28.03;9.43;;;;;;;3.92;47.02;102120.53;126321;1099;104222;-77
2021/10/08 02:42:48;;;;;;;24.70;9.43;;;;;;;3.86;46.87;102125.19;126335;1099;104185;-78
2021/10/08 02:45:20;;;;;;;24.47;9.43;;;;;;;3.81;47.12;102125.58;126253;1099;104144;-78
2021/10/08 02:47:50;;;;;;;29.07;10.13;;;;;;;3.74;46.94;102127.63;126336;1099;104290;-79
2021/10/08 02:50:22;;;;;;;27.20;10.33;;;;;;;3.68;47.69;102127.08;126263;1099;104211;-78
2021/10/08 02:52:56;;;;;;;25.53;10.90;;;;;;;3.63;48.15;102130.95;126327;1099;104192;-78
2021/10/08 02:55:27;;;;;;;24.80;9.95;;;;;;;3.55;48.89;102132.86;126286;1099;104185;-78
2021/10/08 02:57:58;;;;;;;24.83;10.23;;;;;;;3.50;48.51;102143.59;125389;1099;104296;-78
2021/10/08 03:00:29;;;;;;;33.00;11.40;;;;;;;3.43;48.50;102134.34;126157;1099;104149;-78
2021/10/08 03:03:00;;;;;;;28.65;9.65;;;;;;;3.41;48.50;102133.27;126219;1099;104656;-78
2021/10/08 03:05:31;;;;;;;32.37;10.93;;;;;;;3.40;49.64;102144.45;126220;1099;104354;-78
2021/10/08 03:08:03;;;;;;;26.70;10.07;;;;;;;3.38;49.11;102140.78;126211;1099;104206;-78
2021/10/08 03:10:40;;;;;;;26.07;10.27;;;;;;;3.35;49.74;102150.88;125399;1099;104165;-79
2021/10/08 03:13:14;;;;;;;33.40;10.83;;;;;;;3.35;49.86;102145.69;126220;1099;104309;-79
2021/10/08 03:15:47;;;;;;;29.10;9.80;;;;;;;3.36;49.07;102147.52;125425;1099;104220;-79
2021/10/08 03:18:19;;;;;;;30.00;10.23;;;;;;;3.35;49.55;102153.48;125411;1099;104328;-79
2021/10/08 03:20:51;;;;;;;24.75;9.90;;;;;;;3.33;49.88;102152.44;125979;1099;104165;-77
2021/10/08 03:23:24;;;;;;;28.30;10.70;;;;;;;3.31;50.03;102151.39;126130;1099;104309;-78
2021/10/08 03:25:56;;;;;;;30.07;10.10;;;;;;;3.28;50.58;102149.42;125473;1099;104348;-79
2021/10/08 03:28:30;;;;;;;27.87;10.20;;;;;;;3.23;51.08;102146.41;126207;1099;104175;-79
2021/10/08 03:31:03;;;;;;;29.80;10.43;;;;;;;3.19;51.05;102149.48;125419;1099;104229;-78
2021/10/08 03:33:36;;;;;;;24.73;9.23;;;;;;;3.18;50.95;102151.92;126338;1099;104184;-78
2021/10/08 03:36:13;;;;;;;32.50;9.90;;;;;;;3.15;50.47;102147.39;126262;1099;104440;-78
2021/10/08 03:38:44;;;;;;;26.10;9.70;;;;;;;3.13;51.14;102154.13;126278;1099;104222;-78
2021/10/08 03:41:16;;;;;;;30.85;10.15;;;;;;;3.12;50.09;102149.70;126290;1099;104631;-78
2021/10/08 03:43:53;;;;;;;27.53;9.90;;;;;;;3.11;50.97;102157.34;126295;1099;104140;-78
2021/10/08 03:46:32;;;;;;;26.50;10.33;;;;;;;3.08;50.67;102152.77;126309;1099;104290;-78
2021/10/08 03:49:14;;;;;;;26.20;10.23;;;;;;;3.11;50.64;102158.25;126294;1099;104277;-78
2021/10/08 03:51:46;;;;;;;24.80;9.20;;;;;;;3.13;51.40;102160.98;126295;1099;104203;-78
2021/10/08 03:54:19;;;;;;;29.17;10.20;;;;;;;3.11;50.97;102158.25;126296;1099;104216;-78
2021/10/08 03:56:51;;;;;;;33.40;10.50;;;;;;;3.10;50.95;102158.10;126369;1099;104152;-78
2021/10/08 03:59:22;;;;;;;33.90;10.27;;;;;;;3.07;51.27;102163.94;126337;1099;104171;-77
2021/10/08 04:01:55;;;;;;;34.00;10.17;;;;;;;3.03;51.42;102164.42;126239;1099;102292;-77
2021/10/08 04:04:27;;;;;;;29.63;10.50;;;;;;;2.98;51.33;102153.62;126348;1099;104211;-78
2021/10/08 04:06:58;;;;;;;26.63;9.57;;;;;;;2.97;52.24;102162.16;126313;1099;104211;-78
2021/10/08 04:09:29;;;;;;;31.43;11.13;;;;;;;2.95;51.57;102158.52;126331;1099;104153;-77
2021/10/08 04:12:00;;;;;;;38.27;9.73;;;;;;;2.94;50.88;102160.97;126264;1099;104287;-78
2021/10/08 04:14:31;;;;;;;31.40;10.63;;;;;;;2.92;51.52;102157.33;126309;1099;104146;-78
2021/10/08 04:17:03;;;;;;;25.53;10.30;;;;;;;2.92;51.91;102160.83;126265;1099;104219;-77
2021/10/08 04:19:34;;;;;;;27.23;10.23;;;;;;;2.89;51.86;102163.13;126303;1099;104143;-77
2021/10/08 04:22:07;;;;;;;29.87;10.30;;;;;;;2.85;51.38;102159.35;126235;1099;104159;-78
2021/10/08 04:24:38;;;;;;;30.57;11.17;;;;;;;2.84;52.58;102157.52;126263;1099;104656;-78
2021/10/08 04:27:09;;;;;;;35.20;11.33;;;;;;;2.84;52.37;102154.92;126318;1099;104288;-77
2021/10/08 04:29:40;;;;;;;32.57;9.63;;;;;;;2.85;51.87;102154.17;126266;1099;104162;-77
2021/10/08 04:32:10;;;;;;;27.80;10.10;;;;;;;2.86;52.24;102152.48;126224;1099;104245;-78
2021/10/08 04:34:41;;;;;;;33.30;10.13;;;;;;;2.88;52.93;102156.11;126273;1099;104255;-78
2021/10/08 04:37:12;;;;;;;30.03;10.90;;;;;;;2.93;51.57;102159.13;126349;1098;104191;-78
2021/10/08 04:39:43;;;;;;;38.23;11.77;;;;;;;3.01;52.36;102160.78;126211;1099;104318;-78
2021/10/08 04:42:16;;;;;;;27.20;10.53;;;;;;;3.03;52.37;102167.91;126274;1099;104153;-78
2021/10/08 04:44:48;;;;;;;36.77;11.43;;;;;;;3.04;52.55;102164.56;126189;1099;104175;-78
2021/10/08 04:47:20;;;;;;;28.60;10.33;;;;;;;3.06;52.62;102162.11;126294;1099;104156;-78
2021/10/08 04:49:54;;;;;;;31.47;10.43;;;;;;;3.06;53.31;102173.38;126218;1099;104195;-78
2021/10/08 04:52:25;;;;;;;31.33;10.07;;;;;;;3.06;52.71;102169.89;126109;1099;104342;-78
2021/10/08 04:55:04;;;;;;;32.27;9.97;;;;;;;3.06;53.05;102167.30;126128;1099;104363;-78
2021/10/08 04:57:45;;;;;;;25.50;9.37;;;;;;;3.08;52.77;102162.25;126028;1100;104165;-77
2021/10/08 05:00:20;;;;;;;32.30;11.13;;;;;;;3.10;52.18;102160.70;126300;1097;104149;-77
2021/10/08 05:02:51;;;;;;;36.10;10.17;;;;;;;3.13;52.74;102156.73;126118;1099;104150;-77
2021/10/08 05:05:23;;;;;;;27.63;9.63;;;;;;;3.16;53.13;102158.67;126168;1099;104271;-77
2021/10/08 05:07:54;;;;;;;31.10;10.07;;;;;;;3.19;53.14;102161.55;126247;1099;104162;-77
2021/10/08 05:10:25;;;;;;;30.17;10.30;;;;;;;3.21;53.44;102163.52;126240;1098;104640;-77
2021/10/08 05:12:57;;;;;;;29.37;9.97;;;;;;;3.23;53.06;102163.66;126132;1099;104142;-78
2021/10/08 05:15:30;;;;;;;27.43;10.87;;;;;;;3.23;54.13;102168.85;126277;1099;104238;-78
2021/10/08 05:18:03;;;;;;;33.77;11.47;;;;;;;3.24;53.97;102163.80;126178;1099;104140;-78
2021/10/08 05:20:37;;;;;;;32.43;11.57;;;;;;;3.24;53.80;102163.80;126175;1099;104217;-77
2021/10/08 05:23:08;;;;;;;29.77;11.20;;;;;;;3.28;53.76;102164.98;126221;1099;104382;-78
2021/10/08 05:25:41;;;;;;;28.67;11.33;;;;;;;3.32;53.68;102158.38;126195;1099;104207;-77
2021/10/08 05:28:14;;;;;;;31.30;10.97;;;;;;;3.34;54.00;102162.95;126111;1099;104310;-77
2021/10/08 05:30:45;;;;;;;31.67;10.90;;;;;;;3.35;54.03;102153.48;125149;1102;104472;-77
2021/10/08 05:33:21;;;;;;;26.50;10.73;;;;;;;3.35;54.34;102159.59;125901;1099;104393;-77
2021/10/08 05:35:54;;;;;;;33.83;10.27;;;;;;;3.40;53.75;102162.61;125873;1099;104251;-76
2021/10/08 05:38:27;;;;;;;31.00;10.90;;;;;;;3.47;54.21;102164.08;125884;1099;104379;-78
2021/10/08 05:41:01;;;;;;;28.20;9.20;;;;;;;3.55;54.51;102169.20;126092;1099;104152;-78
2021/10/08 05:43:32;;;;;;;26.93;8.67;;;;;;;3.63;54.26;102174.16;125979;1099;104471;-79
2021/10/08 05:46:05;;;;;;;29.63;9.43;;;;;;;3.70;54.08;102168.75;126113;1099;104248;-79
2021/10/08 05:48:38;;;;;;;24.50;8.98;;;;;;;3.77;53.72;102156.45;126054;1099;104736;-79
2021/10/08 05:51:13;;;;;;;23.17;8.03;;;;;;;3.86;54.33;102156.34;125408;1099;104255;-80
2021/10/08 05:53:45;;;;;;;26.37;8.83;;;;;;;3.95;52.94;102164.96;126057;1099;105654;-78
2021/10/08 05:56:19;;;;;;;21.33;8.40;;;;;;;4.04;53.09;102157.09;126018;1099;104300;-79
2021/10/08 05:58:55;;;;;;;28.07;8.58;;;;;;;4.14;53.33;102161.40;125907;1099;104165;-78
2021/10/08 06:01:29;;;;;;;26.27;9.03;;;;;;;4.22;52.96;102152.58;125989;1099;104176;-79
2021/10/08 06:04:05;;;;;;;25.50;8.77;;;;;;;4.31;53.02;102161.19;126042;1099;104172;-78
2021/10/08 06:06:38;;;;;;;24.47;8.63;;;;;;;4.41;53.01;102156.79;126088;1099;104185;-78
2021/10/08 06:09:09;;;;;;;22.17;8.40;;;;;;;4.52;52.27;102157.72;126118;1099;104164;-77
2021/10/08 06:11:41;;;;;;;19.80;7.20;;;;;;;4.61;52.45;102155.92;126050;1099;104181;-76
2021/10/08 06:14:13;;;;;;;21.43;7.50;;;;;;;4.70;52.13;102156.70;126131;1099;104246;-78
2021/10/08 06:16:48;;;;;;;17.83;6.50;;;;;;;4.82;51.92;102164.67;126232;1099;104143;-78
2021/10/08 06:19:18;;;;;;;;;;;;;;;4.90;51.60;102158.42;126255;1099;104223;-78
2021/10/08 06:21:53;;;;;;;20.93;6.13;;;;;;;4.96;52.00;102150.23;126128;1099;104341;-79
2021/10/08 06:24:35;;;;;;;19.77;6.67;;;;;;;5.04;51.34;102157.89;126144;1099;104249;-78
2021/10/08 06:27:10;;;;;;;19.10;6.80;;;;;;;5.15;51.54;102150.09;125931;1099;104207;-77
2021/10/08 06:29:43;;;;;;;19.77;6.40;;;;;;;5.27;51.53;102153.72;126201;1099;104159;-77
2021/10/08 06:32:15;;;;;;;22.07;7.23;;;;;;;5.40;51.42;102150.43;126057;1099;104152;-79
2021/10/08 06:34:47;;;;;;;19.27;6.73;;;;;;;5.53;51.08;102154.95;126189;1099;104141;-77
2021/10/08 06:37:18;;;;;;;21.80;6.90;;;;;;;5.65;51.31;102152.46;126192;1099;104242;-79
2021/10/08 06:39:49;;;;;;;19.20;6.00;;;;;;;5.77;50.78;102148.25;126207;1099;104195;-79
2021/10/08 06:42:24;;;;;;;19.20;6.57;;;;;;;5.87;50.93;102142.98;126233;1098;104210;-79
2021/10/08 06:45:05;;;;;;;16.70;5.80;;;;;;;6.01;49.40;102135.42;126168;1099;104261;-78
2021/10/08 06:47:37;;;;;;;18.50;6.17;;;;;;;6.15;50.47;102136.52;126107;1099;104386;-78
2021/10/08 06:50:10;;;;;;;20.03;6.07;;;;;;;6.27;50.45;102141.00;126110;1097;104180;-77
2021/10/08 06:52:42;;;;;;;20.50;6.00;;;;;;;6.43;49.75;102143.12;125960;1099;104181;-78
2021/10/08 06:55:16;;;;;;;20.20;6.65;;;;;;;6.54;49.38;102141.35;125909;1099;104289;-76
2021/10/08 06:57:47;;;;;;;23.10;6.77;;;;;;;6.70;49.81;102142.55;126015;1099;104293;-77
2021/10/08 07:00:23;;;;;;;20.93;7.20;;;;;;;6.85;49.78;102138.52;126147;1099;104283;-77
2021/10/08 07:02:59;;;;;;;17.57;6.20;;;;;;;7.02;49.92;102142.42;126138;1099;104249;-76
2021/10/08 07:05:35;;;;;;;20.70;6.50;;;;;;;7.18;49.62;102137.59;125915;1099;104198;-78
2021/10/08 07:08:10;;;;;;;26.90;6.87;;;;;;;7.32;49.13;102145.53;126055;1099;104146;-78
2021/10/08 07:10:45;;;;;;;20.40;6.30;;;;;;;7.45;49.47;102139.52;126011;1098;104389;-78
2021/10/08 07:13:18;;;;;;;18.67;6.50;;;;;;;7.58;49.82;102134.42;126124;1099;104175;-77
2021/10/08 07:15:51;;;;;;;16.17;5.90;;;;;;;7.70;48.94;102135.33;126052;1099;104258;-77
2021/10/08 07:18:25;;;;;;;17.90;5.83;;;;;;;7.76;48.28;102127.04;126235;1098;104274;-77
2021/10/08 07:20:56;;;;;;;17.30;5.83;;;;;;;7.87;46.39;102136.56;126328;1098;104343;-77
2021/10/08 07:23:27;;;;;;;24.00;5.47;;;;;;;7.90;47.17;102125.44;126252;1099;104313;-77
2021/10/08 07:25:59;;;;;;;17.80;6.17;;;;;;;7.97;47.34;102126.77;126182;1099;104303;-78
2021/10/08 07:28:30;;;;;;;20.77;6.00;;;;;;;8.11;47.90;102133.89;126212;1099;104216;-77
2021/10/08 07:31:03;;;;;;;20.03;5.90;;;;;;;8.23;47.87;102129.55;126193;1099;104165;-77
2021/10/08 07:33:34;;;;;;;14.23;5.40;;;;;;;8.33;47.16;102133.71;126135;1099;104246;-77
2021/10/08 07:36:07;;;;;;;23.17;6.50;;;;;;;8.40;46.22;102130.74;126222;1098;104244;-76
2021/10/08 07:38:39;;;;;;;22.10;6.37;;;;;;;8.53;47.56;102127.31;126250;1099;104166;-78
2021/10/08 07:41:11;;;;;;;16.60;6.43;;;;;;;8.71;46.57;102126.77;126323;1098;104133;-76
2021/10/08 07:43:42;;;;;;;20.10;6.47;;;;;;;8.83;47.02;102124.99;126170;1099;104713;-77
2021/10/08 07:46:14;;;;;;;20.40;6.13;;;;;;;8.91;46.25;102126.45;126092;1099;104270;-78
2021/10/08 07:48:46;;;;;;;20.97;6.13;;;;;;;8.91;43.37;102123.83;126153;1099;104201;-78
2021/10/08 07:51:17;;;;;;;20.23;6.43;;;;;;;8.99;44.32;102124.32;126231;1099;104249;-78
2021/10/08 07:53:50;;;;;;;19.13;6.10;;;;;;;9.06;44.59;102120.44;125999;1099;104149;-75
2021/10/08 07:56:21;;;;;;;17.27;6.20;;;;;;;9.16;44.56;102114.99;126113;1099;104188;-76
2021/10/08 07:58:52;;;;;;;19.27;5.80;;;;;;;9.26;43.43;102117.44;126098;1098;104223;-76
2021/10/08 08:01:23;;;;;;;19.67;6.07;;;;;;;9.33;44.64;102105.64;126243;1099;104271;-76
2021/10/08 08:03:54;;;;;;;19.83;5.70;;;;;;;9.48;44.56;102108.38;126241;1099;104832;-76
2021/10/08 08:06:26;;;;;;;20.80;5.97;;;;;;;9.61;45.02;102108.36;126249;1098;104175;-76
2021/10/08 08:08:56;;;;;;;14.47;5.27;;;;;;;9.77;45.01;102104.12;126280;1099;104265;-76
2021/10/08 08:11:28;;;;;;;21.13;5.67;;;;;;;9.85;43.66;102098.57;126273;1099;104242;-77
2021/10/08 08:13:59;;;;;;;13.97;5.27;;;;;;;9.95;41.50;102104.41;126307;1099;104134;-78
2021/10/08 08:16:31;;;;;;;16.67;4.87;;;;;;;9.95;42.50;102102.68;126240;1099;101757;-77
2021/10/08 08:19:04;;;;;;;19.70;5.23;;;;;;;10.05;42.48;102098.91;126168;1099;104169;-77
2021/10/08 08:21:38;;;;;;;14.63;4.87;;;;;;;10.13;41.81;102095.08;126269;1098;104157;-77
2021/10/08 08:24:10;;;;;;;15.30;5.13;;;;;;;10.17;41.03;102097.06;126346;1099;104225;-76
2021/10/08 08:26:40;;;;;;;11.67;4.40;;;;;;;10.27;42.56;102106.45;126165;1099;104168;-78
2021/10/08 08:29:16;;;;;;;14.77;4.57;;;;;;;10.36;40.31;102108.75;125954;1099;104232;-80
2021/10/08 08:31:48;;;;;;;14.47;4.90;;;;;;;10.41;42.34;102099.47;126185;1099;104015;-76
2021/10/08 08:34:22;;;;;;;14.97;4.60;;;;;;;10.49;41.56;102102.57;126211;1099;104213;-77
2021/10/08 08:36:53;;;;;;;12.63;4.40;;;;;;;10.57;40.84;102101.31;126076;1099;104156;-78
2021/10/08 08:39:26;;;;;;;10.93;4.47;;;;;;;10.61;39.19;102103.29;126221;1099;104192;-78
2021/10/08 08:42:01;;;;;;;12.77;4.70;;;;;;;10.67;39.65;102094.89;126142;1098;104313;-78
2021/10/08 08:44:35;;;;;;;19.40;5.00;;;;;;;10.70;40.38;102095.08;126203;1099;104142;-76
2021/10/08 08:47:06;;;;;;;19.93;5.00;;;;;;;10.71;39.87;102092.55;126214;1099;104205;-78
2021/10/08 08:49:39;;;;;;;16.47;5.30;;;;;;;10.83;40.43;102100.27;126246;1099;104140;-77
2021/10/08 08:52:10;;;;;;;16.83;4.77;;;;;;;10.88;39.76;102098.82;125350;1099;104149;-77
2021/10/08 08:54:54;;;;;;;20.43;4.57;;;;;;;10.94;38.19;102103.55;126172;1099;104336;-78
2021/10/08 08:57:29;;;;;;;12.33;4.10;;;;;;;11.04;39.15;102092.75;126148;1099;104245;-80
2021/10/08 09:00:06;;;;;;;16.30;4.57;;;;;;;11.11;39.91;102092.31;126212;1099;104153;-77
2021/10/08 09:02:40;;;;;;;13.40;4.90;;;;;;;11.24;40.49;102093.03;126248;1098;104213;-77
2021/10/08 09:05:18;;;;;;;13.70;4.90;;;;;;;11.28;39.35;102087.12;126221;1099;104239;-79
2021/10/08 09:07:50;;;;;;;11.60;4.30;;;;;;;11.33;38.89;102085.69;125965;1099;104156;-76
2021/10/08 09:10:24;;;;;;;16.93;5.10;;;;;;;11.39;39.00;102082.48;126005;1099;104232;-77
2021/10/08 09:12:57;;;;;;;14.47;4.00;;;;;;;11.43;36.92;102077.49;126172;1099;104316;-76
2021/10/08 09:15:30;;;;;;;13.90;4.60;;;;;;;11.43;38.18;102071.34;126196;1099;104146;-77
2021/10/08 09:18:12;;;;;;;12.37;4.47;;;;;;;11.53;38.80;102067.50;126065;1099;104174;-77
2021/10/08 09:21:04;;;;;;;15.23;4.40;;;;;;;11.61;38.42;102076.72;126223;1099;104764;-76
2021/10/08 09:23:37;;;;;;;13.90;4.87;;;;;;;11.59;37.70;102066.12;126305;1099;104243;-77
2021/10/08 09:26:16;;;;;;;11.47;3.77;;;;;;;11.75;37.37;102075.80;126108;1099;104188;-76
2021/10/08 09:29:01;;;;;;;15.97;4.50;;;;;;;11.90;38.37;102061.69;126181;1099;104245;-75
2021/10/08 09:31:45;;;;;;;13.27;4.33;;;;;;;12.05;38.22;102060.83;126202;1099;104277;-76
2021/10/08 09:34:21;;;;;;;13.87;4.70;;;;;;;12.10;37.36;102057.55;126226;1099;104197;-77
2021/10/08 09:36:58;;;;;;;10.97;3.97;;;;;;;12.23;36.46;102065.27;126115;1099;104248;-76
2021/10/08 09:39:33;;;;;;;10.13;4.03;;;;;;;12.33;37.83;102066.69;125930;1099;104229;-77
2021/10/08 09:42:08;;;;;;;9.23;4.20;;;;;;;12.35;35.81;102065.03;126009;1099;104172;-77
2021/10/08 09:44:48;;;;;;;13.00;4.40;;;;;;;12.37;36.57;102059.05;126007;1099;104172;-77
2021/10/08 09:47:22;;;;;;;15.17;3.80;;;;;;;12.44;36.07;102059.37;126240;1099;104661;-76
2021/10/08 09:50:10;;;;;;;13.95;4.25;;;;;;;12.54;36.84;102046.77;125979;1099;104162;-79
2021/10/08 09:52:41;;;;;;;10.50;4.03;;;;;;;12.59;36.91;102036.48;125858;1099;104200;-77
2021/10/08 09:55:16;;;;;;;21.27;4.40;;;;;;;12.66;36.55;102033.31;126142;1099;104224;-80
2021/10/08 09:58:02;;;;;;;17.33;4.43;;;;;;;12.72;35.71;102030.11;126252;1099;104211;-77
2021/10/08 10:00:42;;;;;;;12.43;3.87;;;;;;;12.78;36.47;102025.16;126249;1099;104305;-76
2021/10/08 10:03:15;;;;;;;14.43;4.30;;;;;;;12.80;35.29;102031.39;126214;1099;104165;-76
2021/10/08 10:05:47;;;;;;;15.83;4.00;;;;;;;12.77;36.06;102026.86;126096;1099;104203;-78
2021/10/08 10:08:18;;;;;;;11.20;3.50;;;;;;;12.88;36.08;102023.88;126030;1099;104185;-76
2021/10/08 10:10:50;;;;;;;15.83;4.03;;;;;;;13.02;36.35;102019.31;126225;1099;119750;-74
2021/10/08 10:13:22;;;;;;;12.73;4.43;;;;;;;13.14;36.24;102019.92;126010;1099;104178;-76
2021/10/08 10:15:53;;;;;;;12.03;3.50;;;;;;;13.23;35.77;102016.81;126242;1098;104166;-77
2021/10/08 10:18:28;;;;;;;14.17;3.70;;;;;;;13.30;36.60;102016.30;126170;1099;104168;-76
2021/10/08 10:21:01;;;;;;;22.45;3.70;;;;;;;13.29;34.92;102012.77;125874;1099;104271;-77
2021/10/08 10:23:34;;;;;;;15.37;3.80;;;;;;;13.38;35.29;102019.34;125814;1099;104363;-77
2021/10/08 10:26:08;;;;;;;10.63;3.30;;;;;;;13.41;34.94;102008.95;125956;1099;104567;-77
2021/10/08 10:28:41;;;;;;;13.75;3.90;;;;;;;13.42;35.62;102003.75;126092;1099;104152;-77
2021/10/08 10:31:15;;;;;;;17.98;3.35;;;;;;;13.53;35.95;101998.09;126048;1099;104149;-77
2021/10/08 10:33:49;;;;;;;;;;;;;;;13.60;35.27;102002.80;126089;1099;104188;-77
2021/10/08 10:36:31;;;;;;;12.28;3.52;;;;;;;13.50;34.47;101998.84;126115;1099;104146;-76
2021/10/08 10:39:25;;;;;;;8.67;3.60;;;;;;;13.47;34.79;101998.69;125834;1099;104316;-76
2021/10/08 10:42:16;;;;;;;15.03;3.62;;;;;;;13.47;35.21;101993.42;126086;1099;104245;-76
2021/10/08 10:45:15;;;;;;;13.80;3.67;;;;;;;13.51;35.12;101986.55;126168;1099;104146;-77
2021/10/08 10:48:08;;;;;;;12.60;3.00;;;;;;;13.64;35.21;101987.20;126251;1099;104197;-77
2021/10/08 10:50:49;;;;;;;15.37;3.40;;;;;;;13.76;35.23;101985.95;126086;1099;104280;-77
2021/10/08 10:53:40;;;;;;;10.93;3.17;;;;;;;13.84;35.80;101987.23;126114;1099;104409;-77
2021/10/08 10:56:41;;;;;;;15.03;3.70;;;;;;;13.94;35.78;101980.64;126265;1098;104692;-77
2021/10/08 10:59:30;;;;;;;20.80;5.73;;;;;;;14.06;36.32;101978.55;126205;1099;104245;-77
2021/10/08 11:02:25;;;;;;;12.53;3.33;;;;;;;14.18;35.22;101986.13;126175;1099;104162;-77
2021/10/08 11:05:19;;;;;;;14.30;3.63;;;;;;;14.28;35.65;101972.48;126176;1099;104140;-78
2021/10/08 11:08:14;;;;;;;6.37;3.30;;;;;;;14.22;33.86;101982.77;126129;1099;104207;-77
2021/10/08 11:10:47;;;;;;;;;;;;;;;14.10;34.14;101979.59;126040;1099;104178;-77
2021/10/08 11:13:30;;;;;;;13.57;3.23;;;;;;;14.13;35.07;101977.08;126172;1097;104153;-77
2021/10/08 11:19:28;;;;;;;9.10;3.23;;;;;;;14.07;34.32;101971.53;125853;1098;104619;-78
2021/10/08 11:22:02;;;;;;;13.33;3.37;;;;;;;13.95;35.05;101975.43;125313;1099;104274;-77
2021/10/08 11:24:33;;;;;;;15.33;4.00;;;;;;;13.96;35.22;101974.61;125899;1099;104200;-77
2021/10/08 11:27:08;;;;;;;16.70;3.90;;;;;;;13.96;35.72;101985.16;126002;1099;104174;-77
2021/10/08 11:29:41;;;;;;;10.37;3.10;;;;;;;13.84;35.22;101984.60;126033;1099;104137;-76
2021/10/08 11:32:15;;;;;;;10.13;3.07;;;;;;;13.77;35.00;101979.86;126095;1099;104200;-75
2021/10/08 11:34:56;;;;;;;10.88;3.17;;;;;;;13.68;34.84;101982.07;126199;1099;104254;-77
2021/10/08 11:37:30;;;;;;;10.20;3.20;;;;;;;13.63;34.48;101974.86;126099;1099;104223;-77
2021/10/08 11:40:05;;;;;;;10.50;3.50;;;;;;;13.71;35.27;101974.30;126178;1099;104197;-77
2021/10/08 11:42:42;;;;;;;14.57;3.73;;;;;;;13.83;35.41;101977.50;126046;1099;104168;-78